Time;durP1;ratioP1;P1;durP2;ratioP2;P2;SDS_P1;SDS_P2;PMS_P1;PMS_P2;Temp;Humidity;BMP_temperature;BMP_pressure;BME280_temperature;BME280_humidity;BME280_pressure;Samples;Min_cycle;Max_cycle;Signal;HPM_P1;HPM_P2
2021/05/16 00:02:21;;;;;;;;;;;19.90;56.80;;;;;;5023421;28;20043;-57
2021/05/16 00:04:47;;;;;;;;;;;20.00;56.80;;;;;;5022001;28;19916;-58
2021/05/16 00:07:12;;;;;;;;;;;20.00;56.80;;;;;;5030359;28;19931;-57
2021/05/16 00:09:38;;;;;;;;;;;20.00;56.80;;;;;;5026129;28;19917;-56
2021/05/16 00:12:04;;;;;;;;;;;20.00;56.80;;;;;;5029127;28;19921;-56
2021/05/16 00:14:29;;;;;;;;;;;19.90;56.70;;;;;;5028276;28;19917;-57
2021/05/16 00:16:55;;;;;;;;;;;20.00;56.80;;;;;;5028706;28;19917;-56
2021/05/16 00:19:20;;;;;;;;;;;20.00;56.80;;;;;;5030484;28;20298;-56
2021/05/16 00:21:46;;;;;;;;;;;19.90;56.70;;;;;;5025010;28;19924;-56
2021/05/16 00:24:11;;;;;;;;;;;19.90;56.70;;;;;;5029247;28;19917;-57
2021/05/16 00:26:37;;;;;;;;;;;20.00;56.80;;;;;;5034690;28;20426;-57
2021/05/16 00:29:02;;;;;;;;;;;19.90;56.70;;;;;;5028629;28;19917;-57
2021/05/16 00:31:28;;;;;;;;;;;19.90;56.80;;;;;;5035345;28;19921;-58
2021/05/16 00:33:53;;;;;;;;;;;20.00;56.80;;;;;;5023872;28;19925;-57
2021/05/16 00:36:19;;;;;;;;;;;19.90;56.70;;;;;;5034411;28;20693;-56
2021/05/16 00:38:44;;;;;;;;;;;20.00;56.80;;;;;;5023836;28;20036;-57
2021/05/16 00:41:09;;;;;;;;;;;19.90;56.70;;;;;;5030948;28;19925;-52
2021/05/16 00:43:35;;;;;;;;;;;19.90;56.80;;;;;;5024567;28;19928;-54
2021/05/16 00:46:00;;;;;;;;;;;19.90;56.80;;;;;;5033137;28;19924;-57
2021/05/16 00:48:26;;;;;;;;;;;19.90;56.80;;;;;;5008920;28;19924;-56
2021/05/16 00:50:51;;;;;;;;;;;19.90;56.80;;;;;;5031535;28;19921;-57
2021/05/16 00:53:23;;;;;;;;;;;19.90;56.80;;;;;;5031648;28;19925;-57
2021/05/16 00:55:50;;;;;;;;;;;19.90;56.80;;;;;;5031444;28;19917;-58
2021/05/16 00:58:15;;;;;;;;;;;19.90;56.80;;;;;;5004693;28;20500;-56
2021/05/16 01:00:41;;;;;;;;;;;19.90;56.80;;;;;;5008902;28;19960;-56
2021/05/16 01:03:09;;;;;;;;;;;19.90;56.80;;;;;;5027492;28;20482;-54
2021/05/16 01:05:35;;;;;;;;;;;19.90;56.70;;;;;;5035635;28;20477;-52
2021/05/16 01:08:01;;;;;;;;;;;19.90;56.70;;;;;;5015220;28;20462;-54
2021/05/16 01:10:26;;;;;;;;;;;19.90;56.70;;;;;;5035623;28;19917;-61
2021/05/16 01:12:54;;;;;;;;;;;19.90;56.70;;;;;;5032573;28;19932;-55
2021/05/16 01:15:20;;;;;;;;;;;19.90;56.70;;;;;;5027716;28;20646;-53
2021/05/16 01:17:45;;;;;;;;;;;19.90;56.70;;;;;;5030833;28;19959;-56
2021/05/16 01:20:12;;;;;;;;;;;19.90;56.70;;;;;;5033513;28;20616;-58
2021/05/16 01:22:37;;;;;;;;;;;19.90;56.70;;;;;;5028081;28;19996;-57
2021/05/16 01:25:03;;;;;;;;;;;19.90;56.70;;;;;;5026750;28;20015;-55
2021/05/16 01:27:29;;;;;;;;;;;19.90;56.70;;;;;;5026589;28;19948;-57
2021/05/16 01:29:54;;;;;;;;;;;19.90;56.60;;;;;;5029032;28;19921;-54
2021/05/16 01:32:21;;;;;;;;;;;19.90;56.60;;;;;;5023649;28;19976;-52
2021/05/16 01:34:47;;;;;;;;;;;19.90;56.60;;;;;;5033605;28;20738;-54
2021/05/16 01:37:12;;;;;;;;;;;19.90;56.60;;;;;;5032101;28;20059;-55
2021/05/16 01:39:38;;;;;;;;;;;19.90;56.60;;;;;;5029267;28;19953;-53
2021/05/16 01:42:04;;;;;;;;;;;19.90;56.60;;;;;;5017817;28;20294;-54
2021/05/16 01:44:31;;;;;;;;;;;19.90;56.60;;;;;;5028667;28;20434;-57
2021/05/16 01:47:01;;;;;;;;;;;19.90;56.60;;;;;;5031967;28;19921;-55
2021/05/16 01:49:26;;;;;;;;;;;19.90;56.70;;;;;;5023132;28;19995;-54
2021/05/16 01:51:52;;;;;;;;;;;19.90;56.60;;;;;;5029452;28;20031;-57
2021/05/16 01:54:17;;;;;;;;;;;19.90;56.60;;;;;;5035390;28;20590;-52
2021/05/16 01:56:42;;;;;;;;;;;19.90;56.60;;;;;;5003302;28;19959;-53
2021/05/16 01:59:08;;;;;;;;;;;19.90;56.60;;;;;;5031698;28;19928;-57
2021/05/16 02:01:34;;;;;;;;;;;19.90;56.60;;;;;;5010285;28;19997;-57
2021/05/16 02:03:59;;;;;;;;;;;19.90;56.60;;;;;;5031080;28;19924;-53
2021/05/16 02:06:24;;;;;;;;;;;19.90;56.60;;;;;;5015323;28;19939;-56
2021/05/16 02:08:50;;;;;;;;;;;19.90;56.60;;;;;;5005577;28;19931;-55
2021/05/16 02:11:15;;;;;;;;;;;19.80;56.50;;;;;;5031524;28;19978;-52
2021/05/16 02:13:41;;;;;;;;;;;19.80;56.50;;;;;;5023758;28;19928;-54
2021/05/16 02:16:07;;;;;;;;;;;19.90;56.60;;;;;;5012883;28;19921;-58
2021/05/16 02:18:33;;;;;;;;;;;19.90;56.60;;;;;;5028170;28;19932;-57
2021/05/16 02:20:59;;;;;;;;;;;19.90;56.60;;;;;;5020534;28;19917;-56
2021/05/16 02:23:24;;;;;;;;;;;19.80;56.50;;;;;;5034254;28;19920;-58
2021/05/16 02:25:50;;;;;;;;;;;19.90;56.50;;;;;;5036599;28;19924;-55
2021/05/16 02:28:15;;;;;;;;;;;19.90;56.50;;;;;;5023401;28;19981;-57
2021/05/16 02:30:41;;;;;;;;;;;19.90;56.50;;;;;;5027213;28;19932;-57
2021/05/16 02:33:06;;;;;;;;;;;19.90;56.50;;;;;;5024290;28;19924;-58
2021/05/16 02:35:32;;;;;;;;;;;19.80;56.50;;;;;;5024888;28;20503;-58
2021/05/16 02:37:57;;;;;;;;;;;19.80;56.40;;;;;;5027618;28;19917;-63
2021/05/16 02:40:23;;;;;;;;;;;19.80;56.40;;;;;;5033660;28;19916;-57
2021/05/16 02:42:48;;;;;;;;;;;19.90;56.50;;;;;;5029162;28;20366;-58
2021/05/16 02:45:14;;;;;;;;;;;19.90;56.50;;;;;;5023695;28;20030;-57
2021/05/16 02:47:39;;;;;;;;;;;19.80;56.40;;;;;;5021258;28;20123;-57
2021/05/16 02:50:05;;;;;;;;;;;19.80;56.50;;;;;;5022893;28;19925;-58
2021/05/16 02:52:30;;;;;;;;;;;19.80;56.40;;;;;;5026592;28;20024;-57
2021/05/16 02:54:56;;;;;;;;;;;19.90;56.40;;;;;;5032276;28;20382;-58
2021/05/16 02:57:21;;;;;;;;;;;19.90;56.40;;;;;;5039224;28;19974;-56
2021/05/16 02:59:47;;;;;;;;;;;19.80;56.40;;;;;;5044279;28;19937;-57
2021/05/16 03:02:15;;;;;;;;;;;19.80;56.40;;;;;;5037556;28;19924;-58
2021/05/16 03:04:40;;;;;;;;;;;19.80;56.40;;;;;;5033282;28;19917;-57
2021/05/16 03:07:06;;;;;;;;;;;19.80;56.40;;;;;;5026317;28;20402;-56
2021/05/16 03:09:34;;;;;;;;;;;19.80;56.30;;;;;;5023858;28;19925;-55
2021/05/16 03:11:59;;;;;;;;;;;19.80;56.30;;;;;;5029989;28;19917;-55
2021/05/16 03:14:25;;;;;;;;;;;19.80;56.40;;;;;;5030262;28;19928;-57
2021/05/16 03:16:50;;;;;;;;;;;19.80;56.40;;;;;;5028168;28;19923;-56
2021/05/16 03:19:16;;;;;;;;;;;19.80;56.40;;;;;;5024147;28;19921;-58
2021/05/16 03:21:41;;;;;;;;;;;19.80;56.40;;;;;;5032970;28;20352;-54
2021/05/16 03:24:07;;;;;;;;;;;19.80;56.30;;;;;;5016884;28;20039;-55
2021/05/16 03:26:32;;;;;;;;;;;19.80;56.30;;;;;;5034782;28;19977;-57
2021/05/16 03:28:58;;;;;;;;;;;19.80;56.30;;;;;;5031319;28;20634;-60
2021/05/16 03:31:23;;;;;;;;;;;19.80;56.30;;;;;;5040155;28;19951;-55
2021/05/16 03:33:49;;;;;;;;;;;19.80;56.30;;;;;;5036221;28;20209;-57
2021/05/16 03:36:14;;;;;;;;;;;19.80;56.30;;;;;;5031565;28;19916;-52
2021/05/16 03:38:40;;;;;;;;;;;19.80;56.20;;;;;;5023741;28;19970;-56
2021/05/16 03:41:05;;;;;;;;;;;19.80;56.20;;;;;;5036101;28;19924;-56
2021/05/16 03:43:31;;;;;;;;;;;19.80;56.30;;;;;;5026922;28;19952;-56
2021/05/16 03:45:56;;;;;;;;;;;19.80;56.30;;;;;;5039157;28;19928;-52
2021/05/16 03:48:22;;;;;;;;;;;19.80;56.30;;;;;;5023050;28;20026;-54
2021/05/16 03:50:47;;;;;;;;;;;19.80;56.30;;;;;;5031067;28;19925;-58
2021/05/16 03:53:13;;;;;;;;;;;19.80;56.20;;;;;;5038809;28;19917;-56
2021/05/16 03:55:38;;;;;;;;;;;19.80;56.20;;;;;;5022473;28;19924;-56
2021/05/16 03:58:04;;;;;;;;;;;19.80;56.20;;;;;;5032829;28;19918;-55
2021/05/16 04:00:29;;;;;;;;;;;19.80;56.20;;;;;;5032209;28;20378;-57
2021/05/16 04:02:54;;;;;;;;;;;19.80;56.20;;;;;;5028251;28;19917;-53
2021/05/16 04:05:20;;;;;;;;;;;19.80;56.10;;;;;;5034308;28;19928;-56
2021/05/16 04:07:46;;;;;;;;;;;19.90;56.10;;;;;;5027622;28;20290;-53
2021/05/16 04:10:11;;;;;;;;;;;19.80;56.10;;;;;;5029357;28;19917;-57
2021/05/16 04:12:37;;;;;;;;;;;19.80;56.10;;;;;;5028856;28;20346;-56
2021/05/16 04:15:03;;;;;;;;;;;19.80;56.10;;;;;;5036855;28;19926;-55
2021/05/16 04:17:29;;;;;;;;;;;19.80;56.10;;;;;;5033920;28;19921;-57
2021/05/16 04:19:54;;;;;;;;;;;19.80;56.20;;;;;;5029797;28;20390;-57
2021/05/16 04:22:19;;;;;;;;;;;19.80;56.20;;;;;;5033177;28;19917;-57
2021/05/16 04:24:45;;;;;;;;;;;19.90;56.20;;;;;;5029341;28;20169;-57
2021/05/16 04:27:10;;;;;;;;;;;19.80;56.20;;;;;;5025275;28;20003;-55
2021/05/16 04:29:36;;;;;;;;;;;19.80;56.20;;;;;;5028925;28;19921;-56
2021/05/16 04:32:01;;;;;;;;;;;19.80;56.20;;;;;;5027797;28;19918;-54
2021/05/16 04:34:27;;;;;;;;;;;19.80;56.20;;;;;;5023772;28;19932;-56
2021/05/16 04:36:52;;;;;;;;;;;19.80;56.20;;;;;;5030272;28;19975;-56
2021/05/16 04:39:18;;;;;;;;;;;19.80;56.20;;;;;;5022791;28;19932;-58
2021/05/16 04:41:43;;;;;;;;;;;19.80;56.20;;;;;;5029996;28;20625;-54
2021/05/16 04:44:09;;;;;;;;;;;19.80;56.20;;;;;;5024578;28;19935;-57
2021/05/16 04:46:35;;;;;;;;;;;19.80;56.20;;;;;;5026808;28;19917;-58
2021/05/16 04:49:01;;;;;;;;;;;19.80;56.20;;;;;;5044871;23;19925;-68
2021/05/16 04:51:26;;;;;;;;;;;19.80;56.20;;;;;;5004117;28;20405;-69
2021/05/16 04:53:52;;;;;;;;;;;19.80;56.20;;;;;;4999160;28;19929;-67
2021/05/16 04:56:17;;;;;;;;;;;19.80;56.20;;;;;;5018904;28;20288;-69
2021/05/16 04:58:43;;;;;;;;;;;19.80;56.20;;;;;;5018237;28;19928;-69
2021/05/16 05:01:08;;;;;;;;;;;19.80;56.10;;;;;;4997370;28;20165;-70
2021/05/16 05:03:34;;;;;;;;;;;19.80;56.10;;;;;;5019279;28;20702;-69
2021/05/16 05:05:59;;;;;;;;;;;19.90;56.10;;;;;;5014059;28;19921;-69
2021/05/16 05:08:26;;;;;;;;;;;19.80;56.10;;;;;;5006791;28;19930;-69
2021/05/16 05:10:51;;;;;;;;;;;19.80;56.10;;;;;;5010510;28;19917;-69
2021/05/16 05:13:17;;;;;;;;;;;19.80;56.00;;;;;;5020411;28;19971;-69
2021/05/16 05:15:42;;;;;;;;;;;19.80;56.70;;;;;;4999888;28;20004;-69
2021/05/16 05:18:08;;;;;;;;;;;19.90;56.10;;;;;;5022022;28;20367;-67
2021/05/16 05:20:33;;;;;;;;;;;19.90;56.10;;;;;;5013261;28;19932;-69
2021/05/16 05:23:00;;;;;;;;;;;19.90;56.10;;;;;;4998106;28;19924;-70
2021/05/16 05:25:26;;;;;;;;;;;19.90;56.20;;;;;;5007338;28;20004;-69
2021/05/16 05:27:52;;;;;;;;;;;19.90;56.20;;;;;;5011797;28;20012;-68
2021/05/16 05:30:18;;;;;;;;;;;19.90;56.20;;;;;;5023687;28;19933;-69
2021/05/16 05:32:43;;;;;;;;;;;19.90;56.20;;;;;;5023650;28;19933;-69
2021/05/16 05:35:09;;;;;;;;;;;19.90;56.40;;;;;;5019972;28;20353;-69
2021/05/16 05:37:34;;;;;;;;;;;19.90;56.30;;;;;;5030091;22;19979;-59
2021/05/16 05:40:00;;;;;;;;;;;19.90;56.30;;;;;;5027385;28;19925;-61
2021/05/16 05:42:26;;;;;;;;;;;19.90;56.30;;;;;;5009148;28;20326;-53
2021/05/16 05:44:52;;;;;;;;;;;19.90;56.30;;;;;;5007469;28;20012;-59
2021/05/16 05:47:17;;;;;;;;;;;19.90;56.30;;;;;;5011065;28;20408;-57
2021/05/16 05:49:43;;;;;;;;;;;19.90;56.20;;;;;;5016141;28;19947;-63
2021/05/16 05:52:08;;;;;;;;;;;19.90;56.10;;;;;;5004353;28;19917;-63
2021/05/16 05:54:35;;;;;;;;;;;19.90;56.10;;;;;;5007602;28;19917;-61
2021/05/16 05:57:00;;;;;;;;;;;19.90;56.10;;;;;;5007538;28;19921;-59
2021/05/16 05:59:26;;;;;;;;;;;19.90;56.00;;;;;;5014280;28;19918;-59
2021/05/16 06:01:51;;;;;;;;;;;19.90;56.00;;;;;;5005636;28;19925;-57
2021/05/16 06:04:17;;;;;;;;;;;19.90;55.90;;;;;;5011056;28;19917;-60
2021/05/16 06:06:42;;;;;;;;;;;19.90;55.90;;;;;;5014838;28;20501;-54
2021/05/16 06:09:07;;;;;;;;;;;19.90;55.90;;;;;;4998376;28;19917;-54
2021/05/16 06:11:33;;;;;;;;;;;19.90;55.90;;;;;;5019029;28;19921;-57
2021/05/16 06:13:58;;;;;;;;;;;19.90;55.90;;;;;;4997485;28;20375;-60
2021/05/16 06:16:24;;;;;;;;;;;19.90;55.90;;;;;;5009097;28;19923;-52
2021/05/16 06:18:49;;;;;;;;;;;19.90;55.90;;;;;;5008012;28;19924;-55
2021/05/16 06:21:15;;;;;;;;;;;19.90;55.90;;;;;;5007085;28;20442;-52
2021/05/16 06:24:22;;;;;;;;;;;19.90;55.80;;;;;;5003644;28;19917;-53
2021/05/16 06:26:29;;;;;;;;;;;19.90;55.80;;;;;;5007593;28;19917;-57
2021/05/16 06:28:55;;;;;;;;;;;19.90;55.80;;;;;;4982877;28;19921;-50
2021/05/16 06:31:21;;;;;;;;;;;19.90;55.90;;;;;;5008616;28;20448;-49
2021/05/16 06:33:46;;;;;;;;;;;19.90;55.90;;;;;;5003975;28;20087;-53
2021/05/16 06:36:12;;;;;;;;;;;19.90;55.90;;;;;;5025277;23;20387;-60
2021/05/16 06:38:37;;;;;;;;;;;19.90;55.90;;;;;;5019058;28;19921;-59
2021/05/16 06:41:03;;;;;;;;;;;19.90;55.90;;;;;;5013091;28;19940;-50
2021/05/16 06:43:28;;;;;;;;;;;19.90;55.70;;;;;;5020913;28;20396;-53
2021/05/16 06:45:54;;;;;;;;;;;19.90;55.60;;;;;;5009274;28;19925;-49
2021/05/16 06:48:19;;;;;;;;;;;19.90;55.40;;;;;;5018577;28;19929;-52
2021/05/16 06:50:44;;;;;;;;;;;19.90;55.30;;;;;;5018665;28;19927;-56
2021/05/16 06:53:10;;;;;;;;;;;19.90;55.70;;;;;;5012591;28;20390;-57
2021/05/16 06:55:35;;;;;;;;;;;19.90;55.50;;;;;;5016173;28;19921;-57
2021/05/16 06:58:01;;;;;;;;;;;19.90;55.60;;;;;;5017180;28;19922;-56
2021/05/16 07:00:26;;;;;;;;;;;19.80;55.70;;;;;;5011689;28;20514;-58
2021/05/16 07:02:52;;;;;;;;;;;19.80;55.80;;;;;;4999620;28;19921;-57
2021/05/16 07:05:18;;;;;;;;;;;19.90;56.10;;;;;;5020295;28;19917;-50
2021/05/16 07:07:43;;;;;;;;;;;19.80;56.20;;;;;;5016038;28;19920;-54
2021/05/16 07:10:09;;;;;;;;;;;19.80;56.40;;;;;;5014142;28;19921;-59
2021/05/16 07:12:34;;;;;;;;;;;19.80;56.50;;;;;;5015240;28;20632;-51
2021/05/16 07:15:00;;;;;;;;;;;19.80;56.30;;;;;;5020882;28;20544;-51
2021/05/16 07:17:25;;;;;;;;;;;19.80;56.30;;;;;;5015535;28;19918;-53
2021/05/16 07:19:51;;;;;;;;;;;19.80;56.20;;;;;;5015945;28;19921;-56
2021/05/16 07:22:16;;;;;;;;;;;19.80;56.20;;;;;;5011919;28;19921;-53
2021/05/16 07:24:42;;;;;;;;;;;19.80;56.20;;;;;;5010522;28;19921;-58
2021/05/16 07:27:08;;;;;;;;;;;19.80;56.10;;;;;;5009280;28;19928;-56
2021/05/16 07:29:33;;;;;;;;;;;19.80;56.10;;;;;;5008456;28;19960;-56
2021/05/16 07:31:59;;;;;;;;;;;19.80;56.00;;;;;;5012149;28;19917;-55
2021/05/16 07:34:24;;;;;;;;;;;19.80;56.00;;;;;;5019716;28;20374;-54
2021/05/16 07:36:50;;;;;;;;;;;19.80;55.90;;;;;;5011540;28;19925;-51
2021/05/16 07:39:16;;;;;;;;;;;19.80;55.90;;;;;;5008350;28;19918;-54
2021/05/16 07:41:41;;;;;;;;;;;19.80;55.80;;;;;;5015828;28;19952;-51
2021/05/16 07:44:08;;;;;;;;;;;19.80;55.80;;;;;;5023204;28;19917;-56
2021/05/16 07:46:34;;;;;;;;;;;19.80;55.80;;;;;;5023074;28;19917;-56
2021/05/16 07:48:59;;;;;;;;;;;19.90;55.80;;;;;;5023906;28;19928;-60
2021/05/16 07:51:24;;;;;;;;;;;19.90;55.70;;;;;;5018869;28;19917;-60
2021/05/16 07:53:50;;;;;;;;;;;19.90;55.60;;;;;;5013657;28;19918;-57
2021/05/16 07:56:15;;;;;;;;;;;19.90;55.60;;;;;;5009982;28;19917;-54
2021/05/16 07:58:41;;;;;;;;;;;19.90;55.60;;;;;;5015846;28;20399;-58
2021/05/16 08:01:06;;;;;;;;;;;19.90;55.60;;;;;;5018280;28;19916;-58
2021/05/16 08:03:32;;;;;;;;;;;19.90;55.50;;;;;;5017820;28;19968;-52
2021/05/16 08:05:58;;;;;;;;;;;19.90;55.50;;;;;;4999749;28;20516;-56
2021/05/16 08:08:23;;;;;;;;;;;19.90;55.50;;;;;;5019900;28;20414;-59
2021/05/16 08:10:49;;;;;;;;;;;19.90;55.60;;;;;;5024381;28;19924;-50
2021/05/16 08:13:15;;;;;;;;;;;19.90;55.80;;;;;;5023755;28;19917;-60
2021/05/16 08:15:41;;;;;;;;;;;19.90;55.80;;;;;;5019173;28;20141;-51
2021/05/16 08:18:06;;;;;;;;;;;20.00;55.80;;;;;;5018351;28;19971;-60
2021/05/16 08:20:32;;;;;;;;;;;19.90;55.60;;;;;;5021612;28;19928;-59
2021/05/16 08:22:57;;;;;;;;;;;20.00;55.60;;;;;;5016917;28;19921;-53
2021/05/16 08:25:23;;;;;;;;;;;19.90;55.40;;;;;;5004456;28;19921;-52
2021/05/16 08:27:51;;;;;;;;;;;19.90;55.50;;;;;;5015231;28;19921;-57
2021/05/16 08:30:16;;;;;;;;;;;19.90;55.90;;;;;;5014212;28;19918;-59
2021/05/16 08:32:42;;;;;;;;;;;19.90;55.80;;;;;;5014043;28;20012;-50
2021/05/16 08:35:08;;;;;;;;;;;19.90;55.80;;;;;;5005043;28;19925;-51
2021/05/16 08:37:34;;;;;;;;;;;19.90;55.60;;;;;;5019881;28;19925;-52
2021/05/16 08:39:59;;;;;;;;;;;19.90;55.60;;;;;;5018253;28;19917;-61
2021/05/16 08:42:26;;;;;;;;;;;19.90;55.40;;;;;;5001843;28;19922;-51
2021/05/16 08:44:51;;;;;;;;;;;20.00;55.30;;;;;;5020020;28;20397;-60
2021/05/16 08:47:17;;;;;;;;;;;20.00;55.20;;;;;;5023032;28;19921;-56
2021/05/16 08:49:42;;;;;;;;;;;20.00;55.00;;;;;;5001902;28;19925;-51
2021/05/16 08:52:08;;;;;;;;;;;20.00;54.80;;;;;;5015253;28;19917;-54
2021/05/16 08:54:33;;;;;;;;;;;19.90;54.80;;;;;;5018460;28;19917;-54
2021/05/16 08:56:59;;;;;;;;;;;19.90;54.60;;;;;;5004088;28;19917;-57
2021/05/16 08:59:24;;;;;;;;;;;20.00;55.20;;;;;;5022272;28;19921;-60
2021/05/16 09:01:53;;;;;;;;;;;20.00;54.40;;;;;;5022154;28;19917;-61
2021/05/16 09:04:19;;;;;;;;;;;19.90;54.30;;;;;;5014790;28;20401;-53
2021/05/16 09:06:44;;;;;;;;;;;20.00;54.30;;;;;;5006590;28;20012;-54
2021/05/16 09:09:25;;;;;;;;;;;20.00;54.10;;;;;;5019659;28;19917;-60
2021/05/16 09:12:03;;;;;;;;;;;20.00;54.00;;;;;;5019022;28;19925;-56
2021/05/16 09:14:48;;;;;;;;;;;20.00;53.80;;;;;;5021970;28;20345;-57
2021/05/16 09:17:20;;;;;;;;;;;20.00;53.70;;;;;;5015293;28;19918;-51
2021/05/16 09:19:51;;;;;;;;;;;19.90;53.60;;;;;;5007580;28;19925;-51
2021/05/16 09:22:35;;;;;;;;;;;20.00;53.50;;;;;;5014040;28;19924;-53
2021/05/16 09:25:12;;;;;;;;;;;20.00;53.50;;;;;;4993586;28;20378;-61
2021/05/16 09:27:38;;;;;;;;;;;20.00;53.60;;;;;;5019826;28;19963;-53
2021/05/16 09:30:19;;;;;;;;;;;19.90;53.50;;;;;;5015015;28;19964;-57
2021/05/16 09:32:48;;;;;;;;;;;20.00;53.40;;;;;;5013495;28;19930;-55
2021/05/16 09:35:13;;;;;;;;;;;20.00;53.30;;;;;;5013325;28;19932;-59
2021/05/16 09:37:55;;;;;;;;;;;20.00;53.20;;;;;;5010476;28;19917;-55
2021/05/16 09:40:24;;;;;;;;;;;20.00;53.30;;;;;;5010509;28;19972;-53
2021/05/16 09:43:08;;;;;;;;;;;20.00;53.20;;;;;;5004043;28;19996;-58
2021/05/16 09:46:05;;;;;;;;;;;20.00;53.30;;;;;;5019149;28;19956;-57
2021/05/16 09:48:32;;;;;;;;;;;20.00;53.20;;;;;;4956630;28;20386;-56
2021/05/16 09:51:10;;;;;;;;;;;19.90;53.00;;;;;;5018937;28;19956;-50
2021/05/16 09:53:45;;;;;;;;;;;19.90;53.00;;;;;;5015244;28;20007;-57
2021/05/16 09:56:14;;;;;;;;;;;19.90;53.00;;;;;;5007422;28;19925;-60
2021/05/16 09:58:39;;;;;;;;;;;19.90;53.00;;;;;;5005709;28;19921;-55
2021/05/16 10:01:05;;;;;;;;;;;20.00;53.00;;;;;;5015879;28;19924;-54
2021/05/16 10:03:31;;;;;;;;;;;20.00;53.20;;;;;;5021289;28;20002;-54
2021/05/16 10:05:56;;;;;;;;;;;19.90;53.20;;;;;;5003424;28;19921;-49
2021/05/16 10:08:22;;;;;;;;;;;20.00;53.10;;;;;;5003162;28;19936;-50
2021/05/16 10:10:47;;;;;;;;;;;19.90;53.00;;;;;;5013192;28;20287;-55
2021/05/16 10:13:13;;;;;;;;;;;20.00;53.00;;;;;;5011913;28;19963;-50
2021/05/16 10:15:38;;;;;;;;;;;20.00;53.00;;;;;;5001506;28;19925;-52
2021/05/16 10:18:07;;;;;;;;;;;20.00;53.10;;;;;;5004425;28;20264;-60
2021/05/16 10:20:32;;;;;;;;;;;20.00;53.00;;;;;;4998851;28;19917;-53
2021/05/16 10:22:58;;;;;;;;;;;20.00;52.90;;;;;;5001308;28;20397;-60
2021/05/16 10:25:39;;;;;;;;;;;20.00;53.00;;;;;;5014687;28;19917;-54
2021/05/16 10:28:04;;;;;;;;;;;20.00;52.90;;;;;;5008707;28;20381;-55
2021/05/16 10:30:30;;;;;;;;;;;20.00;52.80;;;;;;5000866;28;19924;-62
2021/05/16 10:32:55;;;;;;;;;;;20.00;52.80;;;;;;5015122;28;19917;-52
2021/05/16 10:35:22;;;;;;;;;;;20.00;52.60;;;;;;5016903;28;19928;-52
2021/05/16 10:37:53;;;;;;;;;;;19.90;52.60;;;;;;5004567;28;19922;-51
2021/05/16 10:40:22;;;;;;;;;;;19.90;52.60;;;;;;5005145;28;19928;-59
2021/05/16 10:42:48;;;;;;;;;;;20.00;52.60;;;;;;5027721;28;19925;-56
2021/05/16 10:45:34;;;;;;;;;;;19.90;52.40;;;;;;5015615;28;19952;-51
2021/05/16 10:48:04;;;;;;;;;;;19.90;52.60;;;;;;5020979;28;20276;-52
2021/05/16 10:50:36;;;;;;;;;;;19.90;53.00;;;;;;4999062;28;19937;-56
2021/05/16 10:53:03;;;;;;;;;;;19.90;53.00;;;;;;5007028;28;19921;-63
2021/05/16 10:55:33;;;;;;;;;;;19.90;53.50;;;;;;5007428;28;19924;-58
2021/05/16 10:57:58;;;;;;;;;;;19.90;53.90;;;;;;5020299;28;19951;-55
2021/05/16 11:00:26;;;;;;;;;;;19.90;54.00;;;;;;5003447;28;20398;-56
2021/05/16 11:02:59;;;;;;;;;;;19.90;53.80;;;;;;5012436;28;19972;-57
2021/05/16 11:08:11;;;;;;;;;;;19.90;53.60;;;;;;5019335;28;19973;-59
2021/05/16 11:10:37;;;;;;;;;;;19.90;53.10;;;;;;5019764;28;19917;-62
2021/05/16 11:13:18;;;;;;;;;;;19.90;52.90;;;;;;5021287;28;20529;-57
2021/05/16 11:15:50;;;;;;;;;;;19.90;52.70;;;;;;5021624;28;19921;-57
2021/05/16 11:18:19;;;;;;;;;;;19.90;52.50;;;;;;5016185;28;19933;-53
2021/05/16 11:20:55;;;;;;;;;;;19.90;52.50;;;;;;5016620;28;20297;-55
2021/05/16 11:23:21;;;;;;;;;;;19.90;52.40;;;;;;5005855;28;19951;-52
2021/05/16 11:25:56;;;;;;;;;;;19.90;52.30;;;;;;5002530;28;20371;-57
2021/05/16 11:28:23;;;;;;;;;;;19.90;52.30;;;;;;5019709;28;19929;-57
2021/05/16 11:30:49;;;;;;;;;;;19.90;52.40;;;;;;5017889;28;19917;-55
2021/05/16 11:33:25;;;;;;;;;;;19.90;52.20;;;;;;5013370;28;20390;-60
2021/05/16 11:35:50;;;;;;;;;;;19.90;52.30;;;;;;5018671;28;19925;-54
2021/05/16 11:38:23;;;;;;;;;;;19.90;52.40;;;;;;5024136;28;19955;-53
2021/05/16 11:40:49;;;;;;;;;;;19.90;52.60;;;;;;5003709;28;19925;-56
2021/05/16 11:43:15;;;;;;;;;;;19.90;52.90;;;;;;4997359;28;19925;-53
2021/05/16 11:45:40;;;;;;;;;;;19.90;53.10;;;;;;5007419;28;19917;-56
2021/05/16 11:48:07;;;;;;;;;;;19.90;53.30;;;;;;5023450;28;19929;-59
2021/05/16 11:50:42;;;;;;;;;;;19.90;53.40;;;;;;5024706;28;19947;-62
2021/05/16 11:53:07;;;;;;;;;;;19.90;53.40;;;;;;5017953;28;19921;-59
2021/05/16 11:55:33;;;;;;;;;;;20.00;53.30;;;;;;5013423;28;19956;-59
2021/05/16 11:57:59;;;;;;;;;;;20.00;53.40;;;;;;5020871;28;19953;-57
2021/05/16 12:00:25;;;;;;;;;;;19.90;53.40;;;;;;5003488;28;19968;-57
2021/05/16 12:02:50;;;;;;;;;;;19.90;53.50;;;;;;5000585;28;20552;-60
2021/05/16 12:05:24;;;;;;;;;;;19.90;53.80;;;;;;5016461;28;19928;-54
2021/05/16 12:07:50;;;;;;;;;;;19.80;54.10;;;;;;5018593;28;20696;-54
2021/05/16 12:10:19;;;;;;;;;;;19.80;53.90;;;;;;5014884;28;19967;-58
2021/05/16 12:12:44;;;;;;;;;;;19.90;53.90;;;;;;5015326;28;19971;-60
2021/05/16 12:15:10;;;;;;;;;;;19.90;53.70;;;;;;5012430;28;19917;-59
2021/05/16 12:17:37;;;;;;;;;;;19.90;53.50;;;;;;4998543;28;19924;-57
2021/05/16 12:20:03;;;;;;;;;;;19.90;53.50;;;;;;5010350;28;20596;-58
2021/05/16 12:22:35;;;;;;;;;;;19.90;53.30;;;;;;5031519;28;20007;-56
2021/05/16 12:25:00;;;;;;;;;;;19.90;53.40;;;;;;5011090;28;19917;-55
2021/05/16 12:27:26;;;;;;;;;;;19.90;53.40;;;;;;5022948;28;19975;-55
2021/05/16 12:29:51;;;;;;;;;;;19.90;53.30;;;;;;5014416;28;20005;-53
2021/05/16 12:32:23;;;;;;;;;;;20.00;53.50;;;;;;5004989;28;19917;-52
2021/05/16 12:34:48;;;;;;;;;;;20.00;54.00;;;;;;5014774;28;19957;-54
2021/05/16 12:37:14;;;;;;;;;;;19.90;53.30;;;;;;5016036;28;19948;-54
2021/05/16 12:39:44;;;;;;;;;;;19.90;53.30;;;;;;5017014;28;19967;-54
2021/05/16 12:42:22;;;;;;;;;;;19.90;53.10;;;;;;5013206;28;19928;-58
2021/05/16 12:44:48;;;;;;;;;;;19.90;53.10;;;;;;5021235;28;19925;-56
2021/05/16 12:47:20;;;;;;;;;;;19.90;53.20;;;;;;5002489;28;20701;-54
2021/05/16 12:49:45;;;;;;;;;;;20.00;53.10;;;;;;5020946;28;19924;-57
2021/05/16 12:52:11;;;;;;;;;;;20.00;53.10;;;;;;5023380;28;19917;-56
2021/05/16 12:54:37;;;;;;;;;;;19.90;53.20;;;;;;5003858;28;19953;-53
2021/05/16 12:57:19;;;;;;;;;;;19.90;53.20;;;;;;5014960;28;20317;-55
2021/05/16 12:59:44;;;;;;;;;;;19.90;53.30;;;;;;4990729;28;19960;-58
2021/05/16 13:02:13;;;;;;;;;;;19.90;53.50;;;;;;5015055;28;19986;-58
2021/05/16 13:04:52;;;;;;;;;;;19.90;53.70;;;;;;5017572;28;20048;-57
2021/05/16 13:07:36;;;;;;;;;;;19.80;53.80;;;;;;5015771;28;19921;-58
2021/05/16 13:10:25;;;;;;;;;;;19.80;53.90;;;;;;5020192;28;19924;-60
2021/05/16 13:12:50;;;;;;;;;;;19.80;54.00;;;;;;5007308;28;20367;-54
2021/05/16 13:15:20;;;;;;;;;;;19.80;53.70;;;;;;5018715;28;19931;-56
2021/05/16 13:17:45;;;;;;;;;;;19.90;53.70;;;;;;5001438;28;19925;-54
2021/05/16 13:20:20;;;;;;;;;;;19.90;53.30;;;;;;5021490;28;19923;-56
2021/05/16 13:22:45;;;;;;;;;;;20.00;53.40;;;;;;5016817;28;19928;-59
2021/05/16 13:25:12;;;;;;;;;;;19.90;53.50;;;;;;5021770;28;19921;-56
2021/05/16 13:27:39;;;;;;;;;;;19.90;53.30;;;;;;5020875;28;20303;-58
2021/05/16 13:30:05;;;;;;;;;;;19.90;53.10;;;;;;5016872;28;19924;-57
2021/05/16 13:32:31;;;;;;;;;;;19.90;53.60;;;;;;5016508;28;20383;-55
2021/05/16 13:34:56;;;;;;;;;;;19.90;53.00;;;;;;5018136;28;19924;-56
2021/05/16 13:37:22;;;;;;;;;;;19.90;52.90;;;;;;5017611;28;20413;-56
2021/05/16 13:39:48;;;;;;;;;;;20.00;52.70;;;;;;5019719;28;19917;-55
2021/05/16 13:42:13;;;;;;;;;;;20.00;52.60;;;;;;5016617;28;20352;-59
2021/05/16 13:44:39;;;;;;;;;;;20.00;52.60;;;;;;5012673;28;19918;-56
2021/05/16 13:47:04;;;;;;;;;;;20.00;52.60;;;;;;5004383;28;20290;-56
2021/05/16 13:49:30;;;;;;;;;;;20.00;52.40;;;;;;5010276;28;19956;-56
2021/05/16 13:51:55;;;;;;;;;;;20.00;52.40;;;;;;5018391;28;19952;-54
2021/05/16 13:54:25;;;;;;;;;;;20.00;52.40;;;;;;5010923;28;21603;-58
2021/05/16 13:56:50;;;;;;;;;;;20.00;52.50;;;;;;5005583;28;19913;-55
2021/05/16 13:59:16;;;;;;;;;;;20.00;52.50;;;;;;5006285;28;20256;-56
2021/05/16 14:01:42;;;;;;;;;;;20.00;52.40;;;;;;5011885;28;19924;-54
2021/05/16 14:04:07;;;;;;;;;;;20.00;52.20;;;;;;5003732;28;20015;-56
2021/05/16 14:06:33;;;;;;;;;;;20.00;52.10;;;;;;5020443;28;19959;-58
2021/05/16 14:08:59;;;;;;;;;;;20.00;52.00;;;;;;4997022;28;19925;-58
2021/05/16 14:11:25;;;;;;;;;;;20.00;52.10;;;;;;5013065;28;19921;-55
2021/05/16 14:13:50;;;;;;;;;;;20.00;52.10;;;;;;5011851;28;19972;-55
2021/05/16 14:16:16;;;;;;;;;;;20.00;52.20;;;;;;5016820;28;19994;-52
2021/05/16 14:18:41;;;;;;;;;;;20.00;52.00;;;;;;5021220;28;19931;-54